Terminal Aerodrome Forecast
Issued by NWS

Home | Current Version | Previous Version | Text Only | Print | Product List | Glossary On
Versions: 1 2 3 4 5 6 7 8 9 10 11 12 13 14 15 16 17 18 19 20 21 22 23 24 25 26 27 28 29 30
000
FTAK31 PAFA 051129
TAFAOT
TAF
PAOT 051129Z 0512/0612 04007KT P6SM SCT100 BKN200
     FM051400 08007KT P6SM SCT050 BKN100
     FM051700 13009KT P6SM SCT050 BKN100
     FM060700 08008KT P6SM SCT050 SCT100=

USA.gov is the U.S. government's official web portal to all federal, state and local government web resources and services.